Time;durP1;ratioP1;P1;durP2;ratioP2;P2;SDS_P1;SDS_P2;PMS_P1;PMS_P2;Temp;Humidity;BMP_temperature;BMP_pressure;BME280_temperature;BME280_humidity;BME280_pressure;Samples;Min_cycle;Max_cycle;Signal;HPM_P1;HPM_P2
2022/08/04 00:02:12;;;;;;;4.43;2.35;;;22.10;92.50;;;;;;5029632;28;20260;-76
2022/08/04 00:04:54;;;;;;;2.50;2.30;;;22.00;92.30;;;;;;5029155;28;20205;-75
2022/08/04 00:07:31;;;;;;;2.30;2.10;;;22.10;92.30;;;;;;5028227;28;20592;-75
2022/08/04 00:10:06;;;;;;;1.80;1.70;;;22.00;92.30;;;;;;5029271;28;20193;-75
2022/08/04 00:12:35;;;;;;;2.50;2.17;;;21.90;92.60;;;;;;5029679;28;20192;-75
2022/08/04 00:15:04;;;;;;;2.00;1.90;;;21.90;92.50;;;;;;5031137;28;20250;-74
2022/08/04 00:17:44;;;;;;;4.25;2.22;;;21.90;92.50;;;;;;5028642;28;20185;-75
2022/08/04 00:20:16;;;;;;;3.60;2.25;;;21.90;92.30;;;;;;5023703;28;20176;-75
2022/08/04 00:22:45;;;;;;;2.65;2.00;;;21.80;92.60;;;;;;5032813;28;20628;-75
2022/08/04 00:25:10;;;;;;;3.55;1.98;;;21.80;93.00;;;;;;5027258;28;20806;-75
2022/08/04 00:27:37;;;;;;;2.00;1.83;;;21.80;93.00;;;;;;5012823;28;20180;-75
2022/08/04 00:30:04;;;;;;;2.25;2.08;;;21.70;93.10;;;;;;5012651;28;20180;-75
2022/08/04 00:32:29;;;;;;;4.00;2.20;;;21.70;93.40;;;;;;5012838;28;20721;-75
2022/08/04 00:34:57;;;;;;;2.42;2.22;;;21.60;93.50;;;;;;5016429;28;20221;-75
2022/08/04 00:37:24;;;;;;;2.40;2.20;;;21.60;93.90;;;;;;5012756;28;20184;-73
2022/08/04 00:39:54;;;;;;;2.13;2.03;;;21.60;94.20;;;;;;5012297;28;20223;-74
2022/08/04 00:42:33;;;;;;;2.15;2.05;;;21.50;94.50;;;;;;5012542;28;20532;-74
2022/08/04 00:45:23;;;;;;;5.13;2.42;;;21.40;95.00;;;;;;5012664;28;20269;-74
2022/08/04 00:47:49;;;;;;;4.40;2.20;;;21.40;95.40;;;;;;5024772;28;20185;-75
2022/08/04 00:50:38;;;;;;;2.85;2.30;;;21.30;96.10;;;;;;5030874;28;20183;-74
2022/08/04 00:53:12;;;;;;;2.30;2.00;;;21.20;96.10;;;;;;5030515;28;20257;-74
2022/08/04 00:55:55;;;;;;;4.50;2.13;;;21.20;96.30;;;;;;5032032;28;20204;-74
2022/08/04 00:58:58;;;;;;;3.20;2.33;;;21.10;96.70;;;;;;5012432;28;20173;-75
2022/08/04 01:01:41;;;;;;;3.35;2.33;;;21.10;97.20;;;;;;5012244;28;20180;-75
2022/08/04 01:04:23;;;;;;;2.10;2.00;;;21.10;97.60;;;;;;5029460;28;20263;-75
2022/08/04 01:07:26;;;;;;;8.73;2.50;;;21.00;97.80;;;;;;5032064;28;20177;-75
2022/08/04 01:10:02;;;;;;;2.42;2.22;;;21.00;97.90;;;;;;5026713;28;20184;-75
2022/08/04 01:12:28;;;;;;;2.35;2.25;;;21.00;98.30;;;;;;5031918;28;20188;-74
2022/08/04 01:15:16;;;;;;;2.15;2.03;;;20.90;98.60;;;;;;5031777;28;20702;-75
2022/08/04 01:18:07;;;;;;;2.30;2.10;;;20.90;99.00;;;;;;5026247;28;20277;-74
2022/08/04 01:20:39;;;;;;;2.22;2.03;;;20.90;99.30;;;;;;5025628;28;20223;-75
2022/08/04 01:23:23;;;;;;;2.60;2.28;;;20.90;99.60;;;;;;5030375;28;20187;-75
2022/08/04 01:26:04;;;;;;;2.20;2.10;;;20.80;99.90;;;;;;5029806;28;20192;-75
2022/08/04 01:28:54;;;;;;;2.95;2.38;;;20.70;99.90;;;;;;5024065;28;20583;-73
2022/08/04 01:31:29;;;;;;;2.13;2.03;;;20.70;99.90;;;;;;5030207;28;20180;-75
2022/08/04 01:33:59;;;;;;;2.75;2.40;;;20.70;99.90;;;;;;5031595;28;20192;-75
2022/08/04 01:36:25;;;;;;;3.88;2.10;;;20.70;99.90;;;;;;5016535;28;20187;-75
2022/08/04 01:38:53;;;;;;;2.25;1.90;;;20.70;99.90;;;;;;5031128;28;20634;-74
2022/08/04 01:41:19;;;;;;;2.65;2.20;;;20.70;99.90;;;;;;5043831;28;20180;-75
2022/08/04 01:43:46;;;;;;;1.80;1.70;;;20.70;99.90;;;;;;5044467;28;20189;-75
2022/08/04 01:46:14;;;;;;;2.45;2.20;;;20.70;99.90;;;;;;5020214;28;20207;-75
2022/08/04 01:48:43;;;;;;;2.55;2.17;;;20.70;99.90;;;;;;5035325;28;20250;-75
2022/08/04 01:51:09;;;;;;;3.03;2.58;;;20.70;99.90;;;;;;5035639;28;20172;-75
2022/08/04 01:53:38;;;;;;;2.30;2.15;;;20.70;99.90;;;;;;5022169;28;20205;-75
2022/08/04 01:56:05;;;;;;;2.78;2.22;;;20.70;99.90;;;;;;5015752;28;20231;-74
2022/08/04 01:58:32;;;;;;;2.25;2.15;;;20.70;99.90;;;;;;5015443;28;20176;-75
2022/08/04 02:01:01;;;;;;;2.40;2.20;;;20.70;99.90;;;;;;5033905;28;20184;-75
2022/08/04 02:03:28;;;;;;;2.83;2.22;;;20.60;99.90;;;;;;5017878;28;20181;-75
2022/08/04 02:06:12;;;;;;;2.25;1.92;;;20.60;99.90;;;;;;5015538;28;20196;-75
2022/08/04 02:08:38;;;;;;;2.45;2.20;;;20.60;99.90;;;;;;5030460;28;20273;-75
2022/08/04 02:11:14;;;;;;;2.00;1.90;;;20.50;99.90;;;;;;5015476;28;20256;-74
2022/08/04 02:13:58;;;;;;;2.13;2.03;;;20.50;99.90;;;;;;5015205;28;20208;-74
2022/08/04 02:16:45;;;;;;;3.00;2.40;;;20.50;99.90;;;;;;5028226;28;20263;-75
2022/08/04 02:19:23;;;;;;;2.25;2.15;;;20.40;99.90;;;;;;5033441;28;20169;-75
2022/08/04 02:21:56;;;;;;;2.20;2.00;;;20.40;99.90;;;;;;5015272;28;20173;-75
2022/08/04 02:24:26;;;;;;;2.35;2.20;;;20.40;99.90;;;;;;5015142;28;20738;-75
2022/08/04 02:26:54;;;;;;;2.40;2.22;;;20.40;99.90;;;;;;5015217;28;20187;-75
2022/08/04 02:29:38;;;;;;;2.28;2.17;;;20.30;99.90;;;;;;5014685;28;20189;-75
2022/08/04 02:32:07;;;;;;;2.47;2.38;;;20.30;99.90;;;;;;5015095;28;20594;-75
2022/08/04 02:34:51;;;;;;;2.28;2.17;;;20.20;99.90;;;;;;5014739;28;20205;-75
2022/08/04 02:37:17;;;;;;;1.73;1.70;;;20.20;99.90;;;;;;5014719;28;20195;-74
2022/08/04 02:39:44;;;;;;;2.67;2.10;;;20.10;99.90;;;;;;5014668;28;20668;-75
2022/08/04 02:42:11;;;;;;;2.63;2.45;;;20.10;99.90;;;;;;5014911;28;20230;-75
2022/08/04 02:44:38;;;;;;;2.20;2.10;;;20.00;99.90;;;;;;5021126;28;20208;-75
2022/08/04 02:47:06;;;;;;;2.63;2.53;;;20.00;99.90;;;;;;5026708;28;20250;-75
2022/08/04 02:49:36;;;;;;;2.75;2.22;;;19.90;99.90;;;;;;5034245;28;20222;-75
2022/08/04 02:52:03;;;;;;;3.30;2.25;;;19.90;99.90;;;;;;5034426;28;20264;-75
2022/08/04 02:54:34;;;;;;;3.17;2.88;;;19.80;99.90;;;;;;5027544;28;20760;-75
2022/08/04 02:57:01;;;;;;;2.50;2.40;;;19.70;99.90;;;;;;5014664;28;20200;-74
2022/08/04 02:59:30;;;;;;;2.92;2.72;;;19.70;99.90;;;;;;5024213;28;20176;-75
2022/08/04 03:01:56;;;;;;;2.92;2.53;;;19.70;99.90;;;;;;5034553;28;20172;-75
2022/08/04 03:05:05;;;;;;;2.78;2.53;;;19.70;99.90;;;;;;5032928;28;20342;-75
2022/08/04 03:07:55;;;;;;;2.72;2.53;;;19.60;99.90;;;;;;5027080;28;20192;-75
2022/08/04 03:10:49;;;;;;;2.38;2.22;;;19.60;99.90;;;;;;5028956;28;20602;-75
2022/08/04 03:13:41;;;;;;;2.78;2.58;;;19.50;99.90;;;;;;5032779;28;20238;-75
2022/08/04 03:16:12;;;;;;;2.85;2.65;;;19.60;99.90;;;;;;5032654;28;20240;-76
2022/08/04 03:19:14;;;;;;;2.60;2.40;;;19.50;99.90;;;;;;5031276;28;20594;-75
2022/08/04 03:22:35;;;;;;;2.72;2.53;;;19.40;99.90;;;;;;5033815;28;20210;-75
2022/08/04 03:25:04;;;;;;;2.88;2.67;;;19.40;99.90;;;;;;4986847;28;20209;-75
2022/08/04 03:28:05;;;;;;;2.95;2.75;;;19.30;99.90;;;;;;5031050;28;20185;-75
2022/08/04 03:31:08;;;;;;;2.67;2.47;;;19.30;99.90;;;;;;5029075;28;20259;-75
2022/08/04 03:34:10;;;;;;;2.78;2.55;;;19.20;99.90;;;;;;5033771;28;20255;-76
2022/08/04 03:36:45;;;;;;;2.97;2.35;;;19.20;99.90;;;;;;5012597;28;20522;-76
2022/08/04 03:39:51;;;;;;;3.15;2.92;;;19.20;99.90;;;;;;5012353;28;20172;-75
2022/08/04 03:42:28;;;;;;;4.53;2.80;;;19.10;99.90;;;;;;5012986;28;20191;-74
2022/08/04 03:45:10;;;;;;;2.92;2.70;;;19.10;99.90;;;;;;5029482;28;20208;-75
2022/08/04 03:47:48;;;;;;;3.20;2.78;;;19.10;99.90;;;;;;5030748;28;20187;-76
2022/08/04 03:50:28;;;;;;;2.53;2.42;;;19.00;99.90;;;;;;5033076;28;20173;-76
2022/08/04 03:53:13;;;;;;;3.47;3.03;;;19.00;99.90;;;;;;5029852;28;20188;-76
2022/08/04 03:55:38;;;;;;;2.65;2.45;;;19.00;99.90;;;;;;5033211;28;20698;-76
2022/08/04 03:58:15;;;;;;;3.35;2.67;;;19.00;99.90;;;;;;5033128;28;20255;-76
2022/08/04 04:01:18;;;;;;;4.15;2.70;;;19.00;99.90;;;;;;5028877;28;20177;-74
2022/08/04 04:03:47;;;;;;;2.75;2.55;;;19.10;99.90;;;;;;5013760;28;20196;-75
2022/08/04 04:06:40;;;;;;;4.55;2.80;;;19.20;99.90;;;;;;5013651;28;20197;-75
2022/08/04 04:09:35;;;;;;;2.58;2.38;;;19.10;99.90;;;;;;5013398;28;20636;-75
2022/08/04 04:12:10;;;;;;;2.95;2.70;;;19.20;99.90;;;;;;5013766;28;20288;-75
2022/08/04 04:14:53;;;;;;;3.10;2.63;;;19.20;99.90;;;;;;5013205;28;20697;-75
2022/08/04 04:17:49;;;;;;;2.67;2.47;;;19.20;99.90;;;;;;5013322;28;20230;-76
2022/08/04 04:20:32;;;;;;;4.53;2.63;;;19.10;99.90;;;;;;5012987;28;20170;-76
2022/08/04 04:23:21;;;;;;;3.47;2.53;;;19.10;99.90;;;;;;5012998;28;20177;-76
2022/08/04 04:26:05;;;;;;;2.88;2.60;;;19.10;99.90;;;;;;5015571;28;20278;-76
2022/08/04 04:28:33;;;;;;;3.13;2.60;;;19.20;99.90;;;;;;5032486;28;20172;-76
2022/08/04 04:31:02;;;;;;;3.13;2.80;;;19.20;99.90;;;;;;5020412;28;20177;-76
2022/08/04 04:33:36;;;;;;;2.95;2.65;;;19.20;99.90;;;;;;5012791;28;20173;-75
2022/08/04 04:36:10;;;;;;;2.55;2.38;;;19.20;99.90;;;;;;5012843;28;20184;-75
2022/08/04 04:39:14;;;;;;;2.35;2.17;;;19.20;99.90;;;;;;5012513;28;20204;-76
2022/08/04 04:41:46;;;;;;;2.63;2.53;;;19.30;99.90;;;;;;5028275;28;20737;-76
2022/08/04 04:44:47;;;;;;;2.88;2.67;;;19.40;99.90;;;;;;5031191;28;20222;-75
2022/08/04 04:47:36;;;;;;;4.70;3.00;;;19.40;99.90;;;;;;5029099;28;20193;-81
2022/08/04 04:50:10;;;;;;;3.58;2.80;;;19.50;99.90;;;;;;5026738;28;20192;-80
2022/08/04 04:52:43;;;;;;;2.72;2.47;;;19.60;99.90;;;;;;5037788;28;20206;-80
2022/08/04 04:55:23;;;;;;;3.10;2.78;;;19.70;99.90;;;;;;5036882;28;20339;-80
2022/08/04 04:57:56;;;;;;;6.13;2.58;;;19.70;99.90;;;;;;5016777;28;20519;-81
2022/08/04 05:00:40;;;;;;;4.88;2.55;;;19.80;99.90;;;;;;5017752;28;20506;-81
2022/08/04 05:04:07;;;;;;;6.07;2.42;;;19.90;99.90;;;;;;5016565;28;20166;-79
2022/08/04 05:06:48;;;;;;;2.60;2.40;;;20.00;99.90;;;;;;5031332;28;20187;-80
2022/08/04 05:09:30;;;;;;;3.00;2.80;;;20.10;99.90;;;;;;5022101;28;20176;-79
2022/08/04 05:12:13;;;;;;;2.78;2.58;;;20.20;99.90;;;;;;5014283;28;20211;-82
2022/08/04 05:14:45;;;;;;;3.10;2.90;;;20.30;99.90;;;;;;5033532;28;20212;-80
2022/08/04 05:17:28;;;;;;;3.30;2.50;;;20.40;99.90;;;;;;5034593;28;20310;-80
2022/08/04 05:20:05;;;;;;;3.35;3.05;;;20.50;99.90;;;;;;5036180;28;20639;-80
2022/08/04 05:22:38;;;;;;;2.80;2.70;;;20.60;99.90;;;;;;5022664;28;20192;-75
2022/08/04 05:25:11;;;;;;;4.10;3.03;;;20.60;99.90;;;;;;5031525;28;20201;-74
2022/08/04 05:27:40;;;;;;;3.72;2.70;;;20.70;99.90;;;;;;5032278;28;20173;-75
2022/08/04 05:30:08;;;;;;;4.70;2.85;;;20.80;99.90;;;;;;5032392;28;20540;-75
2022/08/04 05:32:44;;;;;;;3.30;3.00;;;20.90;99.90;;;;;;5015585;28;20670;-74
2022/08/04 05:35:32;;;;;;;3.15;2.88;;;21.00;99.90;;;;;;5011913;28;20216;-74
2022/08/04 05:38:02;;;;;;;4.47;2.50;;;21.10;99.90;;;;;;5021726;28;20169;-74
2022/08/04 05:40:28;;;;;;;4.18;2.95;;;21.10;99.90;;;;;;5024045;28;20664;-79
2022/08/04 05:42:55;;;;;;;3.45;3.15;;;21.20;99.90;;;;;;5028096;28;20188;-76
2022/08/04 05:45:22;;;;;;;3.20;2.80;;;21.30;99.90;;;;;;5014671;28;20949;-77
2022/08/04 05:47:51;;;;;;;4.53;3.15;;;21.40;99.90;;;;;;5032664;28;20275;-78
2022/08/04 05:50:17;;;;;;;4.88;2.92;;;21.50;99.90;;;;;;5024529;28;20177;-77
2022/08/04 05:52:43;;;;;;;4.60;2.85;;;21.60;99.90;;;;;;5024976;28;20242;-76
2022/08/04 05:55:11;;;;;;;4.25;3.17;;;21.70;99.90;;;;;;5031990;28;20619;-77
2022/08/04 05:57:40;;;;;;;3.67;2.78;;;21.80;99.90;;;;;;5032079;28;20647;-76
2022/08/04 06:00:07;;;;;;;3.65;3.10;;;21.90;99.90;;;;;;5020368;28;20200;-77
2022/08/04 06:02:34;;;;;;;2.95;2.53;;;21.90;99.90;;;;;;5011334;28;20671;-77
2022/08/04 06:05:01;;;;;;;3.38;2.95;;;22.00;99.90;;;;;;5017075;28;20750;-77
2022/08/04 06:07:27;;;;;;;4.18;2.97;;;22.20;99.90;;;;;;5027461;28;20238;-76
2022/08/04 06:09:53;;;;;;;5.45;3.08;;;22.30;99.90;;;;;;5032696;28;20176;-77
2022/08/04 06:12:51;;;;;;;3.58;3.28;;;22.40;99.90;;;;;;5028123;28;20196;-77
2022/08/04 06:15:20;;;;;;;4.57;2.70;;;22.50;99.90;;;;;;5031934;28;20252;-77
2022/08/04 06:17:50;;;;;;;3.00;2.80;;;22.60;99.90;;;;;;5033085;28;20555;-79
2022/08/04 06:20:19;;;;;;;3.13;2.83;;;22.70;99.90;;;;;;5032890;28;20169;-77
2022/08/04 06:22:48;;;;;;;3.70;2.72;;;22.80;99.90;;;;;;5032540;28;20588;-77
2022/08/04 06:25:19;;;;;;;4.38;3.10;;;22.90;99.90;;;;;;5031453;28;20201;-78
2022/08/04 06:27:46;;;;;;;3.75;3.15;;;22.90;99.90;;;;;;5029388;28;20176;-78
2022/08/04 06:30:13;;;;;;;3.13;2.92;;;23.10;99.90;;;;;;5010410;28;20628;-74
2022/08/04 06:32:48;;;;;;;4.13;2.63;;;23.20;99.90;;;;;;5009951;28;20256;-74
2022/08/04 06:35:18;;;;;;;2.92;2.72;;;23.30;99.90;;;;;;5032136;28;20713;-75
2022/08/04 06:37:46;;;;;;;5.43;3.53;;;23.40;99.90;;;;;;5033223;28;20177;-75
2022/08/04 06:40:13;;;;;;;3.63;3.38;;;23.50;99.90;;;;;;5035467;28;20172;-75
2022/08/04 06:42:40;;;;;;;3.40;3.20;;;23.60;99.20;;;;;;5036287;28;20924;-76
2022/08/04 06:45:08;;;;;;;3.00;2.80;;;23.60;98.50;;;;;;5030227;28;20208;-77
2022/08/04 06:47:40;;;;;;;8.70;3.90;;;23.70;98.60;;;;;;5035262;28;20184;-77
2022/08/04 06:50:09;;;;;;;3.30;3.05;;;23.80;98.10;;;;;;5034588;28;20682;-77
2022/08/04 06:52:36;;;;;;;6.55;3.30;;;23.90;97.90;;;;;;5029798;28;20283;-77
2022/08/04 06:55:03;;;;;;;3.08;2.88;;;24.10;97.00;;;;;;5015387;28;20283;-75
2022/08/04 06:57:31;;;;;;;5.78;3.20;;;24.20;96.50;;;;;;5016075;28;20243;-73
2022/08/04 07:00:05;;;;;;;4.97;2.95;;;24.30;95.70;;;;;;5014352;28;20237;-71
2022/08/04 07:02:36;;;;;;;5.15;3.05;;;24.40;95.80;;;;;;5016348;28;20260;-73
2022/08/04 07:05:02;;;;;;;6.10;2.80;;;24.50;94.80;;;;;;5035336;28;20204;-72
2022/08/04 07:07:28;;;;;;;3.25;2.50;;;24.70;93.00;;;;;;5033383;28;20310;-72
2022/08/04 07:09:54;;;;;;;6.72;2.22;;;24.80;92.70;;;;;;5024025;28;20189;-72
2022/08/04 07:12:23;;;;;;;2.95;2.50;;;24.90;92.50;;;;;;5014576;28;20196;-71
2022/08/04 07:14:50;;;;;;;5.20;2.88;;;25.00;90.20;;;;;;5014318;28;20209;-76
2022/08/04 07:17:17;;;;;;;5.80;2.80;;;25.20;90.20;;;;;;5020611;28;20249;-74
2022/08/04 07:19:46;;;;;;;5.18;2.72;;;25.20;90.40;;;;;;5033948;28;20176;-72
2022/08/04 07:22:12;;;;;;;2.97;2.47;;;25.40;90.30;;;;;;5033798;28;20168;-71
2022/08/04 07:24:40;;;;;;;4.93;2.60;;;25.40;88.10;;;;;;5033875;28;20204;-71
2022/08/04 07:27:07;;;;;;;2.60;2.38;;;25.60;88.90;;;;;;5021346;28;20196;-71
2022/08/04 07:29:37;;;;;;;13.57;2.85;;;25.70;86.10;;;;;;5028740;28;20174;-72
2022/08/04 07:32:04;;;;;;;2.60;2.40;;;25.80;86.20;;;;;;5031283;28;20180;-73
2022/08/04 07:34:30;;;;;;;5.45;2.58;;;25.90;86.70;;;;;;5026212;28;20227;-74
2022/08/04 07:36:58;;;;;;;3.00;2.72;;;26.10;86.00;;;;;;5017128;28;20170;-72
2022/08/04 07:39:27;;;;;;;2.33;2.13;;;26.20;83.80;;;;;;5014193;28;20180;-74
2022/08/04 07:41:54;;;;;;;2.65;2.25;;;26.30;81.60;;;;;;5029433;28;20647;-73
2022/08/04 07:44:20;;;;;;;2.60;2.40;;;26.40;81.80;;;;;;5039586;28;20938;-74
2022/08/04 07:46:46;;;;;;;2.42;2.33;;;26.50;80.60;;;;;;5034666;28;20187;-73
2022/08/04 07:49:11;;;;;;;2.47;2.28;;;26.60;80.80;;;;;;5034432;28;20244;-72
2022/08/04 07:51:38;;;;;;;3.45;2.00;;;26.60;79.70;;;;;;5031170;28;20192;-71
2022/08/04 07:54:08;;;;;;;2.10;2.00;;;26.80;79.60;;;;;;5015004;28;20212;-74
2022/08/04 07:56:39;;;;;;;2.70;2.10;;;26.90;77.60;;;;;;5032207;28;20205;-72
2022/08/04 07:59:06;;;;;;;3.63;2.25;;;27.00;78.00;;;;;;5027608;28;20207;-71
2022/08/04 08:01:35;;;;;;;2.10;2.00;;;27.00;76.60;;;;;;5031922;28;20548;-73
2022/08/04 08:04:03;;;;;;;2.53;2.35;;;27.10;77.50;;;;;;5033305;28;20173;-71
2022/08/04 08:06:29;;;;;;;3.40;2.70;;;27.10;76.60;;;;;;5032094;28;20272;-69
2022/08/04 08:08:55;;;;;;;2.55;2.38;;;27.10;78.00;;;;;;5027595;28;20280;-71
2022/08/04 08:11:21;;;;;;;2.58;2.40;;;27.10;78.70;;;;;;5011814;28;20177;-71
2022/08/04 08:13:47;;;;;;;2.40;2.25;;;27.20;78.90;;;;;;5014411;28;20250;-72
2022/08/04 08:16:14;;;;;;;2.55;2.20;;;27.30;77.60;;;;;;5024921;28;20201;-72
2022/08/04 08:18:40;;;;;;;4.13;2.50;;;27.40;77.70;;;;;;5017222;28;20173;-72
2022/08/04 08:21:06;;;;;;;3.25;2.10;;;27.50;76.60;;;;;;5035517;28;20236;-71
2022/08/04 08:23:34;;;;;;;2.80;2.50;;;27.60;76.60;;;;;;5015308;28;20176;-73
2022/08/04 08:26:00;;;;;;;2.58;2.38;;;27.70;75.30;;;;;;5015900;28;20292;-71
2022/08/04 08:28:26;;;;;;;3.58;3.20;;;27.90;75.10;;;;;;5032982;28;20181;-68
2022/08/04 08:30:52;;;;;;;3.55;2.67;;;27.90;75.10;;;;;;5034099;28;20783;-70
2022/08/04 08:33:19;;;;;;;3.65;2.90;;;28.10;74.70;;;;;;5027821;28;20197;-69
2022/08/04 08:36:07;;;;;;;3.70;2.58;;;28.20;74.60;;;;;;5013821;28;20580;-71
2022/08/04 08:38:39;;;;;;;2.83;2.58;;;28.30;74.20;;;;;;5013265;28;20708;-70
2022/08/04 08:41:10;;;;;;;4.93;2.65;;;28.40;73.10;;;;;;5014046;28;20223;-71
2022/08/04 08:44:01;;;;;;;2.63;2.42;;;28.40;73.80;;;;;;5033539;28;20918;-72
2022/08/04 08:47:00;;;;;;;3.70;2.67;;;28.50;72.50;;;;;;5039451;28;20189;-75
2022/08/04 08:49:44;;;;;;;3.83;2.80;;;28.50;71.70;;;;;;5037236;28;20222;-74
2022/08/04 08:52:31;;;;;;;5.30;2.85;;;28.60;73.30;;;;;;5019522;28;20280;-73
2022/08/04 08:55:44;;;;;;;2.55;2.40;;;28.70;73.00;;;;;;5027620;28;20581;-73
2022/08/04 08:58:34;;;;;;;2.90;2.45;;;28.80;73.30;;;;;;5030173;28;20185;-76
2022/08/04 09:01:11;;;;;;;2.55;2.40;;;29.00;71.30;;;;;;5021764;28;20197;-71
2022/08/04 09:04:03;;;;;;;3.70;2.35;;;29.10;71.00;;;;;;5015460;28;20327;-71
2022/08/04 09:06:54;;;;;;;5.55;2.40;;;29.30;71.40;;;;;;5017957;28;20172;-71
2022/08/04 09:09:42;;;;;;;2.15;2.05;;;29.40;70.90;;;;;;5034482;28;20188;-72
2022/08/04 09:12:23;;;;;;;2.50;2.22;;;29.60;70.30;;;;;;5029074;28;20177;-73
2022/08/04 09:15:11;;;;;;;4.20;2.10;;;29.80;69.60;;;;;;5033293;28;20208;-71
2022/08/04 09:17:53;;;;;;;4.63;2.33;;;30.00;68.80;;;;;;5037406;28;20220;-75
2022/08/04 09:20:29;;;;;;;2.45;2.35;;;30.30;67.90;;;;;;5035833;28;20560;-75
2022/08/04 09:23:29;;;;;;;2.47;2.00;;;30.30;65.30;;;;;;5046203;28;20171;-73
2022/08/04 09:26:33;;;;;;;5.07;2.33;;;30.40;65.20;;;;;;5040734;28;20208;-77
2022/08/04 09:29:22;;;;;;;6.55;2.70;;;30.60;65.50;;;;;;5025837;28;20586;-76
2022/08/04 09:32:07;;;;;;;2.60;2.40;;;31.50;64.90;;;;;;5018194;28;20671;-76
2022/08/04 09:34:51;;;;;;;2.92;1.90;;;34.10;59.00;;;;;;5020652;28;20218;-76
2022/08/04 09:37:37;;;;;;;2.90;2.40;;;36.80;52.90;;;;;;5021887;28;20161;-76
2022/08/04 09:40:24;;;;;;;6.22;2.13;;;39.10;48.20;;;;;;5021731;28;20181;-76
2022/08/04 09:42:53;;;;;;;3.53;1.90;;;40.90;45.40;;;;;;5021330;28;20207;-76
2022/08/04 09:45:26;;;;;;;2.17;1.98;;;42.40;42.90;;;;;;5015642;28;20282;-77
2022/08/04 09:48:23;;;;;;;3.28;1.90;;;43.40;40.70;;;;;;5016069;28;20206;-77
2022/08/04 09:50:56;;;;;;;1.88;1.77;;;44.30;39.80;;;;;;5022658;28;20181;-76
2022/08/04 09:53:47;;;;;;;3.45;1.70;;;45.00;38.10;;;;;;5020042;28;20185;-77
2022/08/04 09:56:34;;;;;;;1.98;1.73;;;45.40;36.60;;;;;;5029086;28;20246;-76
2022/08/04 09:59:09;;;;;;;2.35;1.50;;;45.90;36.10;;;;;;5027120;28;20192;-73
2022/08/04 10:01:37;;;;;;;2.10;1.80;;;46.00;35.80;;;;;;5012816;28;20176;-74
2022/08/04 10:04:08;;;;;;;2.92;1.73;;;46.00;35.80;;;;;;5031892;28;20214;-76
2022/08/04 10:06:40;;;;;;;1.55;1.45;;;46.40;35.30;;;;;;5017302;28;20720;-74
2022/08/04 10:09:39;;;;;;;1.63;1.58;;;46.70;34.00;;;;;;5021645;28;20179;-77
2022/08/04 10:12:37;;;;;;;2.00;1.55;;;46.90;33.60;;;;;;5030420;28;20181;-77
2022/08/04 10:15:19;;;;;;;3.78;1.67;;;47.20;33.50;;;;;;5024014;28;20623;-77
2022/08/04 10:18:13;;;;;;;2.17;1.33;;;47.60;32.60;;;;;;5020801;28;20316;-76
2022/08/04 10:20:57;;;;;;;1.70;1.60;;;48.00;31.10;;;;;;5015353;28;20173;-77
2022/08/04 10:23:50;;;;;;;4.88;1.40;;;48.60;31.00;;;;;;5023885;28;20176;-76
2022/08/04 10:26:26;;;;;;;1.67;1.40;;;49.10;30.20;;;;;;5030808;28;20755;-77
2022/08/04 10:29:03;;;;;;;3.55;1.50;;;49.50;30.50;;;;;;5016211;28;20175;-77
2022/08/04 10:31:34;;;;;;;1.40;1.30;;;49.70;30.60;;;;;;5030680;28;20635;-77
2022/08/04 10:34:10;;;;;;;1.67;1.27;;;49.30;30.70;;;;;;5015067;28;20571;-77
2022/08/04 10:37:04;;;;;;;1.40;1.40;;;48.90;29.90;;;;;;5016021;28;20238;-77
2022/08/04 10:42:46;;;;;;;1.60;1.23;;;49.70;29.90;;;;;;5029247;28;20191;-76
2022/08/04 10:45:22;;;;;;;1.10;1.10;;;50.10;29.30;;;;;;5036274;28;20187;-77
2022/08/04 10:48:05;;;;;;;3.17;1.40;;;49.90;29.40;;;;;;5034356;28;20211;-77
2022/08/04 10:50:34;;;;;;;1.45;1.35;;;49.70;29.50;;;;;;5038430;28;20253;-77
2022/08/04 10:53:10;;;;;;;1.52;1.42;;;49.70;29.40;;;;;;5031411;28;20192;-77
2022/08/04 10:55:42;;;;;;;1.20;1.20;;;50.70;28.70;;;;;;5015444;28;20208;-78
2022/08/04 10:58:14;;;;;;;1.35;1.35;;;51.40;28.60;;;;;;5017715;28;20165;-78
2022/08/04 11:00:42;;;;;;;2.25;1.40;;;51.00;29.30;;;;;;5019132;28;20204;-77
2022/08/04 11:03:11;;;;;;;2.55;1.30;;;50.70;29.20;;;;;;5016812;28;20165;-78
2022/08/04 11:05:43;;;;;;;1.25;1.25;;;50.30;29.00;;;;;;5017288;28;20557;-78
2022/08/04 11:08:14;;;;;;;3.05;1.10;;;50.30;28.90;;;;;;5021333;28;20550;-77
2022/08/04 11:10:46;;;;;;;1.38;0.90;;;50.10;29.00;;;;;;5036749;28;20165;-78
2022/08/04 11:13:16;;;;;;;1.55;1.50;;;50.20;28.50;;;;;;5036655;28;20564;-78
2022/08/04 11:15:50;;;;;;;2.10;1.60;;;50.40;29.30;;;;;;5032718;28;20213;-77
2022/08/04 11:18:46;;;;;;;1.38;1.27;;;50.30;28.90;;;;;;5015545;28;20164;-77
2022/08/04 11:21:18;;;;;;;2.05;1.20;;;50.60;28.80;;;;;;5016720;28;20292;-78
2022/08/04 11:23:53;;;;;;;1.20;1.20;;;50.60;28.80;;;;;;5035011;28;20185;-77
2022/08/04 11:26:28;;;;;;;1.33;1.20;;;51.10;28.80;;;;;;5033878;28;20195;-78
2022/08/04 11:29:00;;;;;;;1.25;1.05;;;51.40;28.50;;;;;;5034218;28;20186;-78
2022/08/04 11:31:30;;;;;;;2.45;1.15;;;51.40;27.60;;;;;;5035186;28;20633;-78
2022/08/04 11:34:08;;;;;;;1.58;1.48;;;50.60;28.00;;;;;;5025188;28;20201;-77
2022/08/04 11:36:46;;;;;;;1.20;1.10;;;50.40;28.40;;;;;;5016042;28;20172;-78
2022/08/04 11:39:15;;;;;;;2.70;1.40;;;50.00;28.90;;;;;;5033058;28;20183;-78
2022/08/04 11:41:56;;;;;;;1.02;0.82;;;50.20;28.80;;;;;;5035271;28;20662;-77
2022/08/04 11:44:25;;;;;;;2.42;1.45;;;50.30;28.90;;;;;;5018696;28;20209;-78
2022/08/04 11:46:57;;;;;;;1.45;1.10;;;50.30;28.40;;;;;;5016056;28;20200;-77
2022/08/04 11:49:29;;;;;;;1.45;1.30;;;50.60;28.00;;;;;;5015547;28;20189;-78
2022/08/04 11:51:59;;;;;;;1.95;1.20;;;50.60;28.40;;;;;;5032993;28;20267;-79
2022/08/04 11:54:24;;;;;;;1.60;1.20;;;50.40;28.30;;;;;;5035154;28;20203;-80
2022/08/04 11:56:51;;;;;;;0.82;0.82;;;50.20;28.30;;;;;;5035229;28;20180;-79
2022/08/04 11:59:19;;;;;;;1.20;1.10;;;49.80;28.60;;;;;;5035368;28;20673;-79
2022/08/04 12:01:47;;;;;;;2.25;1.40;;;49.70;28.60;;;;;;5015563;28;20192;-80
2022/08/04 12:04:25;;;;;;;1.65;1.40;;;49.90;28.70;;;;;;5014796;28;20177;-79
2022/08/04 12:07:13;;;;;;;1.85;1.17;;;49.90;28.20;;;;;;5020251;28;20270;-79
2022/08/04 12:09:55;;;;;;;1.00;1.00;;;49.80;28.20;;;;;;5017180;28;20594;-79
2022/08/04 12:12:28;;;;;;;1.30;1.15;;;49.20;28.50;;;;;;5015041;28;20192;-80
2022/08/04 12:15:21;;;;;;;1.15;1.08;;;49.20;28.50;;;;;;5014544;28;20682;-80
2022/08/04 12:18:05;;;;;;;2.72;1.10;;;49.00;28.50;;;;;;5014363;28;20187;-79
2022/08/04 12:20:39;;;;;;;1.85;1.33;;;48.80;28.70;;;;;;5015351;28;20655;-79
2022/08/04 12:23:13;;;;;;;1.10;1.10;;;48.50;28.70;;;;;;5034496;28;20171;-80
2022/08/04 12:25:43;;;;;;;1.52;1.10;;;48.20;29.00;;;;;;5028242;28;20239;-79
2022/08/04 12:28:27;;;;;;;1.35;1.20;;;47.90;29.80;;;;;;5012902;28;20268;-79
2022/08/04 12:31:01;;;;;;;8.52;1.55;;;47.20;29.60;;;;;;5011822;28;20269;-79
2022/08/04 12:33:30;;;;;;;2.50;1.50;;;47.70;29.60;;;;;;5014456;28;20180;-81
2022/08/04 12:36:10;;;;;;;1.00;1.00;;;48.00;29.10;;;;;;5020759;28;20208;-81
2022/08/04 12:38:48;;;;;;;1.92;1.35;;;48.00;29.30;;;;;;5033096;28;20638;-80
2022/08/04 12:41:20;;;;;;;1.00;1.00;;;47.70;29.60;;;;;;5032528;28;20197;-80
2022/08/04 12:43:46;;;;;;;1.00;1.00;;;47.90;29.30;;;;;;5014146;28;20703;-80
2022/08/04 12:46:22;;;;;;;1.00;1.00;;;48.50;29.00;;;;;;5028665;28;20209;-80
2022/08/04 12:48:49;;;;;;;1.23;1.13;;;48.80;28.80;;;;;;5013536;28;20233;-80
2022/08/04 12:51:15;;;;;;;2.13;1.23;;;48.20;29.00;;;;;;5029940;28;20513;-81
2022/08/04 12:53:42;;;;;;;1.25;1.15;;;47.20;29.30;;;;;;5033880;28;20633;-80
2022/08/04 12:56:13;;;;;;;1.45;1.10;;;47.00;29.60;;;;;;5034220;28;20188;-80
2022/08/04 12:58:48;;;;;;;2.25;1.20;;;48.20;29.10;;;;;;5015055;28;20260;-79
2022/08/04 13:01:22;;;;;;;1.67;1.17;;;49.40;28.50;;;;;;5016560;28;20670;-78
2022/08/04 13:04:09;;;;;;;0.98;0.98;;;50.90;27.90;;;;;;5018052;28;20219;-79
2022/08/04 13:06:35;;;;;;;1.08;1.02;;;52.60;27.60;;;;;;5030278;28;20180;-79
2022/08/04 13:09:04;;;;;;;1.20;1.10;;;54.10;26.80;;;;;;5015622;28;20220;-78
2022/08/04 13:11:39;;;;;;;2.15;1.17;;;56.50;26.00;;;;;;5016169;28;20183;-79
2022/08/04 13:14:05;;;;;;;0.82;0.82;;;57.40;25.60;;;;;;5015409;28;20670;-77
2022/08/04 13:16:33;;;;;;;0.70;0.70;;;59.10;25.20;;;;;;5016089;28;20176;-79
2022/08/04 13:18:59;;;;;;;2.95;1.25;;;60.50;24.30;;;;;;5020581;28;20187;-78
2022/08/04 13:21:28;;;;;;;1.75;1.00;;;60.00;24.50;;;;;;5034416;28;20199;-78
2022/08/04 13:24:02;;;;;;;4.75;1.10;;;60.00;24.40;;;;;;5021078;28;20827;-78
2022/08/04 13:26:29;;;;;;;2.17;0.90;;;60.20;24.40;;;;;;5028424;28;20213;-79
2022/08/04 13:29:01;;;;;;;2.60;0.90;;;61.30;24.30;;;;;;5025081;28;20253;-79
2022/08/04 13:31:30;;;;;;;1.98;1.20;;;61.30;23.80;;;;;;5023717;28;20172;-78
2022/08/04 13:34:04;;;;;;;1.85;1.08;;;60.50;24.10;;;;;;5043089;28;20183;-80
2022/08/04 13:36:31;;;;;;;0.80;0.80;;;60.50;24.30;;;;;;5034312;28;20172;-79